Time;durP1;ratioP1;P1;durP2;ratioP2;P2;SDS_P1;SDS_P2;PMS_P1;PMS_P2;Temp;Humidity;BMP_temperature;BMP_pressure;BME280_temperature;BME280_humidity;BME280_pressure;Samples;Min_cycle;Max_cycle;Signal;HPM_P1;HPM_P2
2022/01/22 00:01:18;;;;;;;9.67;6.57;;;3.40;99.90;;;;;;5056174;28;20202;-79
2022/01/22 00:03:44;;;;;;;9.80;7.27;;;3.40;99.90;;;;;;5055753;28;20661;-78
2022/01/22 00:06:10;;;;;;;10.00;6.93;;;3.40;99.90;;;;;;5057928;28;20174;-81
2022/01/22 00:08:36;;;;;;;8.07;5.70;;;3.40;99.90;;;;;;5054264;28;20195;-80
2022/01/22 00:11:02;;;;;;;8.37;6.20;;;3.40;99.90;;;;;;5056047;28;20190;-79
2022/01/22 00:16:12;;;;;;;8.30;6.50;;;3.40;99.90;;;;;;5056957;28;20217;-75
2022/01/22 00:18:39;;;;;;;8.57;6.93;;;3.50;99.90;;;;;;5055222;28;20194;-74
2022/01/22 00:21:05;;;;;;;10.70;6.80;;;3.50;99.90;;;;;;5057884;28;20190;-74
2022/01/22 00:23:32;;;;;;;11.13;7.73;;;3.50;99.90;;;;;;5058239;28;20198;-73
2022/01/22 00:26:00;;;;;;;8.30;6.87;;;3.50;99.90;;;;;;5058372;28;20190;-76
2022/01/22 00:28:26;;;;;;;13.57;8.27;;;3.50;99.90;;;;;;5060709;28;20198;-76
2022/01/22 00:30:51;;;;;;;10.87;7.33;;;3.50;99.90;;;;;;5059138;28;20247;-77
2022/01/22 00:33:17;;;;;;;9.30;7.00;;;3.50;99.90;;;;;;5058352;28;20699;-77
2022/01/22 00:35:44;;;;;;;13.73;7.90;;;3.50;99.90;;;;;;5054629;28;20205;-81
2022/01/22 00:38:10;;;;;;;8.27;7.47;;;3.50;99.90;;;;;;5060137;28;20190;-78
2022/01/22 00:40:35;;;;;;;8.60;7.47;;;3.60;99.90;;;;;;5059148;28;20225;-77
2022/01/22 00:43:01;;;;;;;9.63;7.33;;;3.60;99.90;;;;;;5057490;28;20966;-77
2022/01/22 00:45:26;;;;;;;8.07;7.10;;;3.60;99.90;;;;;;5057526;28;20800;-75
2022/01/22 00:47:52;;;;;;;8.70;6.80;;;3.60;99.90;;;;;;5054479;28;20218;-76
2022/01/22 00:50:20;;;;;;;9.17;7.37;;;3.60;99.90;;;;;;5055660;28;20668;-76
2022/01/22 00:52:47;;;;;;;10.03;6.77;;;3.60;99.90;;;;;;5055712;28;20241;-76
2022/01/22 00:55:13;;;;;;;8.97;7.47;;;3.60;99.90;;;;;;5055924;28;20268;-75
2022/01/22 00:57:39;;;;;;;11.73;7.50;;;3.60;99.90;;;;;;5059247;28;20244;-75
2022/01/22 01:00:09;;;;;;;8.13;6.53;;;3.60;99.90;;;;;;5054835;28;20305;-74
2022/01/22 01:02:36;;;;;;;7.53;6.40;;;3.70;99.90;;;;;;5051805;28;20194;-73
2022/01/22 01:05:03;;;;;;;10.47;6.20;;;3.70;99.90;;;;;;5051798;28;20721;-75
2022/01/22 01:07:30;;;;;;;8.87;6.57;;;3.70;99.90;;;;;;5060416;28;20244;-76
2022/01/22 01:09:56;;;;;;;7.23;6.03;;;3.70;99.90;;;;;;5075052;28;20198;-74
2022/01/22 01:12:22;;;;;;;6.47;4.67;;;3.70;99.90;;;;;;5054528;28;20202;-66
2022/01/22 01:15:08;;;;;;;6.83;5.50;;;3.70;99.90;;;;;;5059580;28;20201;-65
2022/01/22 01:17:57;;;;;;;6.10;5.27;;;3.70;99.90;;;;;;5056438;28;20182;-66
2022/01/22 01:34:13;;;;;;;7.73;5.33;;;3.70;99.90;;;;;;5065702;28;20197;-66
2022/01/22 01:36:40;;;;;;;6.57;5.17;;;3.70;99.90;;;;;;5052337;28;20225;-66
2022/01/22 01:39:09;;;;;;;6.37;5.40;;;3.80;99.90;;;;;;5065813;28;20703;-67
2022/01/22 01:41:46;;;;;;;5.63;4.87;;;3.70;99.90;;;;;;5047802;28;20752;-66
2022/01/22 01:44:13;;;;;;;6.90;4.97;;;3.70;99.90;;;;;;5052760;28;20217;-67
2022/01/22 01:46:50;;;;;;;6.73;5.20;;;3.70;99.90;;;;;;5052686;28;20194;-68
2022/01/22 01:49:17;;;;;;;5.70;4.70;;;3.70;99.90;;;;;;5065842;28;20239;-67
2022/01/22 01:51:43;;;;;;;6.47;5.47;;;3.70;99.90;;;;;;5051778;28;20210;-68
2022/01/22 01:54:47;;;;;;;6.53;4.40;;;3.70;99.90;;;;;;5063727;28;20605;-67
2022/01/22 01:59:47;;;;;;;5.00;4.23;;;3.70;99.90;;;;;;5049217;28;20737;-67
2022/01/22 02:02:13;;;;;;;7.17;4.73;;;3.70;99.90;;;;;;5045603;28;20187;-68
2022/01/22 02:04:41;;;;;;;6.07;4.83;;;3.70;99.90;;;;;;5061091;28;20197;-68
2022/01/22 02:07:06;;;;;;;6.67;4.63;;;3.70;99.90;;;;;;5055779;28;20250;-68
2022/01/22 02:09:33;;;;;;;7.87;5.77;;;3.60;99.90;;;;;;5062306;28;20202;-68
2022/01/22 02:12:05;;;;;;;6.10;4.47;;;3.60;99.90;;;;;;5055014;28;20193;-68
2022/01/22 02:25:21;;;;;;;4.87;4.20;;;3.60;99.90;;;;;;5043710;28;20676;-68
2022/01/22 02:27:47;;;;;;;7.00;5.07;;;3.60;99.90;;;;;;5057011;28;20198;-67
2022/01/22 02:30:19;;;;;;;6.93;4.90;;;3.60;99.90;;;;;;5061756;28;20225;-67
2022/01/22 02:33:10;;;;;;;8.23;4.27;;;3.60;99.90;;;;;;5053897;28;20186;-67
2022/01/22 02:35:46;;;;;;;7.90;5.03;;;3.60;99.90;;;;;;5054859;28;20287;-66
2022/01/22 02:38:17;;;;;;;7.37;5.00;;;3.60;99.90;;;;;;5053109;28;20194;-68
2022/01/22 02:40:47;;;;;;;6.53;4.50;;;3.60;99.90;;;;;;5063078;28;20214;-68
2022/01/22 02:43:13;;;;;;;6.30;4.63;;;3.60;99.90;;;;;;5062007;28;20661;-66
2022/01/22 02:45:43;;;;;;;6.73;5.00;;;3.60;99.90;;;;;;5060362;28;20205;-67
2022/01/22 02:48:10;;;;;;;6.57;4.40;;;3.50;99.90;;;;;;5064751;28;20217;-67
2022/01/22 02:50:36;;;;;;;6.83;5.00;;;3.50;99.90;;;;;;5060787;28;20209;-67
2022/01/22 02:53:08;;;;;;;5.67;4.97;;;3.50;99.90;;;;;;5063950;28;20202;-66
2022/01/22 02:55:34;;;;;;;7.53;4.90;;;3.50;99.90;;;;;;5056761;28;20549;-67
2022/01/22 02:58:00;;;;;;;7.07;5.00;;;3.60;99.90;;;;;;5058459;28;20202;-67
2022/01/22 03:00:26;;;;;;;5.70;4.83;;;3.50;99.90;;;;;;5052896;28;20304;-65
2022/01/22 03:02:52;;;;;;;6.03;4.97;;;3.50;99.90;;;;;;5064044;28;20735;-66
2022/01/22 03:05:19;;;;;;;8.00;5.43;;;3.50;99.90;;;;;;5055571;28;20209;-66
2022/01/22 03:07:49;;;;;;;7.17;5.13;;;3.60;99.90;;;;;;5056154;28;20197;-66
2022/01/22 03:10:18;;;;;;;6.33;4.93;;;3.50;99.90;;;;;;5056527;28;20198;-66
2022/01/22 03:13:06;;;;;;;9.20;5.77;;;3.50;99.90;;;;;;5064957;28;20656;-66
2022/01/22 03:15:49;;;;;;;6.00;4.43;;;3.50;99.90;;;;;;5062248;28;20451;-65
2022/01/22 03:18:20;;;;;;;8.47;4.97;;;3.50;99.90;;;;;;5053130;28;20478;-68
2022/01/22 03:29:02;;;;;;;7.73;5.77;;;3.50;99.90;;;;;;5048491;28;20217;-68
2022/01/22 03:31:28;;;;;;;6.03;4.77;;;3.40;99.90;;;;;;5043894;28;20209;-68
2022/01/22 03:33:53;;;;;;;5.10;4.60;;;3.40;99.90;;;;;;5049686;28;20997;-69
2022/01/22 03:36:20;;;;;;;6.87;5.33;;;3.40;99.90;;;;;;5064432;28;20214;-68
2022/01/22 03:38:47;;;;;;;6.33;4.93;;;3.40;99.90;;;;;;5059052;28;20556;-68
2022/01/22 03:41:13;;;;;;;7.47;4.77;;;3.30;99.90;;;;;;5063835;28;20218;-69
2022/01/22 03:43:38;;;;;;;8.33;5.27;;;3.30;99.90;;;;;;5047384;28;20206;-68
2022/01/22 03:46:04;;;;;;;6.73;4.60;;;3.30;99.90;;;;;;5053542;28;20195;-67
2022/01/22 03:48:30;;;;;;;4.87;4.37;;;3.20;99.90;;;;;;5052169;28;20241;-68
2022/01/22 03:50:55;;;;;;;6.63;4.47;;;3.20;99.90;;;;;;5064306;28;20194;-65
2022/01/22 03:53:21;;;;;;;9.00;5.10;;;3.10;99.90;;;;;;5053026;28;20283;-66
2022/01/22 03:56:02;;;;;;;9.17;4.47;;;3.10;99.90;;;;;;5064063;28;20252;-67
2022/01/22 03:58:28;;;;;;;5.43;4.30;;;3.10;99.90;;;;;;5045692;28;20233;-67
2022/01/22 04:01:12;;;;;;;8.30;4.90;;;3.10;99.90;;;;;;5064408;28;20244;-67
2022/01/22 04:03:42;;;;;;;7.80;4.80;;;3.00;99.90;;;;;;5048746;28;20209;-67
2022/01/22 04:08:54;;;;;;;5.37;3.50;;;2.90;99.90;;;;;;5042986;28;20561;-67
2022/01/22 04:11:20;;;;;;;5.40;3.90;;;2.90;99.90;;;;;;5066038;28;20202;-67
2022/01/22 04:13:48;;;;;;;7.97;4.43;;;2.90;99.90;;;;;;5057786;28;20214;-66
2022/01/22 04:16:15;;;;;;;5.60;3.90;;;2.90;99.90;;;;;;5064128;28;20221;-69
2022/01/22 04:26:56;;;;;;;3.73;3.00;;;2.80;99.90;;;;;;5045721;28;20170;-69
2022/01/22 04:29:24;;;;;;;4.27;3.37;;;2.80;99.90;;;;;;5047377;28;20685;-68
2022/01/22 04:31:50;;;;;;;6.83;3.70;;;2.70;99.90;;;;;;5064176;28;20224;-68
2022/01/22 04:34:16;;;;;;;4.17;3.43;;;2.80;99.90;;;;;;5058553;28;20245;-68
2022/01/22 04:36:42;;;;;;;4.27;3.53;;;2.70;99.90;;;;;;5066966;28;20241;-68
2022/01/22 04:39:07;;;;;;;5.03;3.80;;;2.70;99.90;;;;;;5055912;28;20206;-68
2022/01/22 04:41:33;;;;;;;6.13;4.00;;;2.70;99.90;;;;;;5063890;28;20224;-68
2022/01/22 04:44:02;;;;;;;7.93;4.20;;;2.60;99.90;;;;;;5062908;28;20195;-68
2022/01/22 04:49:13;;;;;;;6.23;3.63;;;2.60;99.90;;;;;;5055735;28;20202;-67
2022/01/22 04:57:08;;;;;;;5.23;3.30;;;2.60;99.90;;;;;;5045274;28;20577;-67
2022/01/22 04:59:33;;;;;;;6.13;3.83;;;2.60;99.90;;;;;;5046877;28;20166;-68
2022/01/22 05:01:59;;;;;;;7.20;4.10;;;2.60;99.90;;;;;;5063881;28;20572;-68
2022/01/22 05:04:25;;;;;;;6.43;3.83;;;2.60;99.90;;;;;;5066768;28;20190;-69
2022/01/22 05:06:50;;;;;;;6.37;4.47;;;2.60;99.90;;;;;;5064060;28;20201;-68
2022/01/22 05:09:16;;;;;;;4.87;3.50;;;2.60;99.90;;;;;;5058020;28;20211;-68
2022/01/22 05:11:41;;;;;;;13.67;3.87;;;2.60;99.90;;;;;;5066463;28;20201;-68
2022/01/22 05:14:07;;;;;;;5.90;4.30;;;2.60;99.90;;;;;;5050786;28;20606;-69
2022/01/22 05:16:32;;;;;;;7.33;4.23;;;2.70;99.90;;;;;;5066384;28;20277;-68
2022/01/22 05:19:08;;;;;;;7.73;3.57;;;2.70;99.90;;;;;;5050791;28;20197;-66
2022/01/22 05:21:36;;;;;;;7.27;3.50;;;2.70;99.90;;;;;;5058573;28;20774;-67
2022/01/22 05:24:06;;;;;;;9.40;4.17;;;2.70;99.90;;;;;;5051164;28;20210;-67
2022/01/22 05:26:56;;;;;;;5.63;3.53;;;2.70;99.90;;;;;;5064701;28;20323;-67
2022/01/22 05:32:33;;;;;;;10.73;3.60;;;2.60;99.90;;;;;;5032352;28;20255;-67
2022/01/22 05:37:43;;;;;;;5.47;3.40;;;2.60;99.90;;;;;;5060538;28;20224;-67
2022/01/22 05:40:10;;;;;;;5.50;3.30;;;2.60;99.90;;;;;;5063700;28;20214;-67
2022/01/22 05:42:38;;;;;;;6.67;3.43;;;2.50;99.90;;;;;;5056358;28;20275;-67
2022/01/22 05:45:05;;;;;;;3.93;2.93;;;2.50;99.90;;;;;;5060009;28;20250;-68
2022/01/22 05:47:30;;;;;;;5.37;3.23;;;2.50;99.90;;;;;;5057158;28;20202;-68
2022/01/22 05:49:56;;;;;;;4.67;3.10;;;2.40;99.90;;;;;;5054168;28;20190;-68
2022/01/22 05:52:33;;;;;;;5.77;3.77;;;2.40;99.90;;;;;;5063696;28;20282;-68
2022/01/22 06:00:12;;;;;;;6.80;3.53;;;2.40;99.90;;;;;;5062198;28;20300;-68
2022/01/22 06:02:38;;;;;;;4.97;3.50;;;2.40;99.90;;;;;;5063098;28;20692;-67
2022/01/22 06:05:04;;;;;;;3.87;3.17;;;2.30;99.90;;;;;;5055707;28;20193;-67
2022/01/22 06:07:29;;;;;;;5.33;3.43;;;2.30;99.90;;;;;;5054972;28;20603;-69
2022/01/22 06:13:14;;;;;;;11.37;3.30;;;2.20;99.90;;;;;;5054373;28;20571;-68
2022/01/22 06:15:13;;;;;;;5.40;3.60;;;2.20;99.90;;;;;;5065839;28;20679;-67
2022/01/22 06:17:39;;;;;;;6.57;3.80;;;2.20;99.90;;;;;;5055876;28;20198;-68
2022/01/22 06:20:06;;;;;;;4.43;3.60;;;2.20;99.90;;;;;;5062533;28;20255;-68
2022/01/22 06:22:31;;;;;;;7.70;4.63;;;2.20;99.90;;;;;;5062649;28;20701;-69
2022/01/22 06:24:57;;;;;;;9.13;4.10;;;2.20;99.90;;;;;;5060139;28;20195;-69
2022/01/22 06:27:23;;;;;;;5.87;4.13;;;2.20;99.90;;;;;;5063040;28;20225;-69
2022/01/22 06:29:49;;;;;;;7.40;4.33;;;2.20;99.90;;;;;;5065001;28;20198;-68
2022/01/22 06:32:15;;;;;;;8.47;4.03;;;2.10;99.90;;;;;;5059377;28;20205;-69
2022/01/22 06:34:40;;;;;;;11.53;4.90;;;2.10;99.90;;;;;;5057081;28;20182;-68
2022/01/22 06:37:06;;;;;;;5.40;4.07;;;2.10;99.90;;;;;;5059460;28;20426;-68
2022/01/22 06:39:41;;;;;;;5.47;4.03;;;2.10;99.90;;;;;;5053974;28;20189;-69
2022/01/22 06:42:07;;;;;;;6.87;4.97;;;2.10;99.90;;;;;;5043354;28;20403;-68
2022/01/22 06:44:34;;;;;;;4.83;3.93;;;2.00;99.90;;;;;;5058275;28;20194;-69
2022/01/22 06:47:00;;;;;;;7.60;4.33;;;2.00;99.90;;;;;;5059625;28;20636;-68
2022/01/22 06:49:25;;;;;;;4.67;3.87;;;2.00;99.90;;;;;;5064994;28;20166;-68
2022/01/22 06:51:53;;;;;;;8.73;4.47;;;2.00;99.90;;;;;;5059786;28;20705;-68
2022/01/22 06:54:21;;;;;;;6.43;4.40;;;2.00;99.90;;;;;;5057087;28;20277;-68
2022/01/22 06:56:46;;;;;;;6.83;5.07;;;2.00;99.90;;;;;;5062119;28;20201;-68
2022/01/22 06:59:13;;;;;;;8.47;4.10;;;2.00;99.90;;;;;;5044824;28;20543;-66
2022/01/22 07:01:39;;;;;;;9.20;4.53;;;2.00;99.90;;;;;;5064162;28;20209;-68
2022/01/22 07:04:05;;;;;;;9.33;5.20;;;2.10;99.90;;;;;;5053513;28;20194;-68
2022/01/22 07:06:30;;;;;;;6.57;4.40;;;2.10;99.90;;;;;;5064135;28;20282;-68
2022/01/22 07:08:56;;;;;;;4.90;4.10;;;2.10;99.90;;;;;;5053460;28;20633;-69
2022/01/22 07:11:22;;;;;;;6.50;4.27;;;2.20;99.90;;;;;;5064122;28;20190;-69
2022/01/22 07:13:47;;;;;;;6.93;4.10;;;2.20;99.90;;;;;;5059432;28;20229;-69
2022/01/22 07:16:13;;;;;;;9.67;4.13;;;2.20;99.90;;;;;;5063526;28;20270;-70
2022/01/22 07:18:39;;;;;;;10.30;4.77;;;2.20;99.90;;;;;;5048870;28;20293;-67
2022/01/22 07:21:20;;;;;;;5.50;4.40;;;2.20;99.90;;;;;;5063949;28;20292;-68
2022/01/22 07:26:15;;;;;;;8.23;4.23;;;2.20;99.90;;;;;;5063599;28;20199;-64
2022/01/22 07:28:41;;;;;;;11.77;4.30;;;2.20;99.90;;;;;;5052833;28;20621;-68
2022/01/22 07:31:07;;;;;;;5.87;3.53;;;2.20;99.90;;;;;;5064150;28;20267;-68
2022/01/22 07:33:34;;;;;;;6.37;4.20;;;2.20;99.90;;;;;;5047418;28;20306;-68
2022/01/22 07:36:00;;;;;;;7.57;5.00;;;2.30;99.90;;;;;;5054221;28;20206;-70
2022/01/22 07:38:25;;;;;;;6.50;4.90;;;2.30;99.90;;;;;;5050138;28;20278;-69
2022/01/22 07:40:51;;;;;;;8.80;3.67;;;2.30;99.90;;;;;;5054189;28;20317;-69
2022/01/22 07:43:17;;;;;;;9.10;4.77;;;2.30;99.90;;;;;;5054708;28;20703;-69
2022/01/22 07:45:43;;;;;;;7.33;4.33;;;2.30;99.90;;;;;;5055655;28;20193;-69
2022/01/22 07:48:09;;;;;;;9.90;4.90;;;2.30;99.90;;;;;;5058111;28;20187;-69
2022/01/22 07:50:35;;;;;;;10.77;3.90;;;2.30;99.90;;;;;;5058100;28;20522;-70
2022/01/22 07:53:02;;;;;;;11.20;4.47;;;2.40;99.90;;;;;;5057623;28;20192;-67
2022/01/22 07:55:30;;;;;;;8.83;5.10;;;2.40;99.90;;;;;;5056425;28;20563;-69
2022/01/22 07:57:56;;;;;;;4.33;3.70;;;2.40;99.90;;;;;;5059145;28;20216;-66
2022/01/22 08:00:22;;;;;;;7.63;4.30;;;2.40;99.90;;;;;;5056926;28;20206;-67
2022/01/22 08:02:48;;;;;;;7.63;4.53;;;2.50;99.90;;;;;;5059000;28;20273;-68
2022/01/22 08:05:14;;;;;;;11.73;4.30;;;2.50;99.90;;;;;;5055196;28;20603;-68
2022/01/22 08:07:44;;;;;;;10.47;6.20;;;2.50;99.90;;;;;;5057339;28;20545;-68
2022/01/22 08:10:11;;;;;;;6.37;4.73;;;2.50;99.90;;;;;;5055989;28;20301;-69
2022/01/22 08:12:38;;;;;;;6.80;4.13;;;2.50;99.90;;;;;;5057543;28;20271;-68
2022/01/22 08:15:05;;;;;;;6.93;4.60;;;2.50;99.90;;;;;;5049781;28;20666;-68
2022/01/22 08:17:31;;;;;;;6.60;4.20;;;2.50;99.90;;;;;;5055245;28;20205;-68
2022/01/22 08:19:57;;;;;;;6.97;4.57;;;2.60;99.90;;;;;;5053983;28;20205;-69
2022/01/22 08:22:22;;;;;;;6.17;4.53;;;2.60;99.90;;;;;;5057371;28;20846;-69
2022/01/22 08:24:51;;;;;;;5.80;4.30;;;2.60;99.90;;;;;;5053093;28;20199;-68
2022/01/22 08:27:32;;;;;;;13.10;5.63;;;2.60;99.90;;;;;;5058260;28;20195;-69
2022/01/22 08:29:59;;;;;;;6.17;4.63;;;2.70;99.90;;;;;;5054076;28;20217;-70
2022/01/22 08:32:55;;;;;;;6.27;4.10;;;2.70;99.90;;;;;;5056283;28;20218;-68
2022/01/22 08:38:00;;;;;;;8.17;3.80;;;2.80;99.90;;;;;;5052712;28;20198;-68
2022/01/22 08:40:26;;;;;;;7.03;4.80;;;2.80;99.90;;;;;;5059971;28;20214;-69
2022/01/22 08:42:51;;;;;;;8.00;4.40;;;2.80;99.90;;;;;;5065312;28;20282;-73
2022/01/22 08:45:17;;;;;;;11.30;4.27;;;2.80;99.90;;;;;;5053476;28;20509;-66
2022/01/22 08:47:42;;;;;;;6.47;3.70;;;3.00;99.90;;;;;;5063836;28;20265;-71
2022/01/22 08:50:09;;;;;;;5.80;4.00;;;3.10;99.90;;;;;;5056236;28;20228;-70
2022/01/22 08:52:36;;;;;;;6.07;4.10;;;3.10;99.90;;;;;;5057435;28;20178;-70
2022/01/22 08:55:04;;;;;;;8.13;4.30;;;3.00;99.90;;;;;;5053338;28;20719;-69
2022/01/22 08:57:29;;;;;;;6.57;3.63;;;3.00;99.90;;;;;;5056782;28;20213;-68
2022/01/22 08:59:55;;;;;;;4.70;3.63;;;3.00;99.90;;;;;;5053161;28;20602;-69
2022/01/22 09:02:21;;;;;;;8.53;3.67;;;3.00;99.90;;;;;;5057514;28;20568;-70
2022/01/22 09:04:46;;;;;;;7.67;4.00;;;3.10;99.90;;;;;;5053360;28;20328;-71
2022/01/22 09:07:12;;;;;;;4.60;3.57;;;3.10;99.90;;;;;;5055346;28;20317;-69
2022/01/22 09:09:39;;;;;;;6.43;4.03;;;3.10;99.90;;;;;;5052177;28;20266;-70
2022/01/22 09:12:06;;;;;;;6.00;3.37;;;3.10;99.90;;;;;;5057369;28;20174;-70
2022/01/22 09:14:32;;;;;;;7.27;3.40;;;3.10;99.90;;;;;;5055161;28;20794;-68
2022/01/22 09:16:59;;;;;;;7.07;4.00;;;3.10;99.90;;;;;;5052781;28;20193;-69
2022/01/22 09:19:32;;;;;;;16.07;4.10;;;3.10;99.90;;;;;;5051513;28;20305;-69
2022/01/22 09:21:58;;;;;;;4.40;3.67;;;3.10;99.90;;;;;;5058388;28;20238;-68
2022/01/22 09:24:23;;;;;;;4.87;3.80;;;3.20;99.90;;;;;;5049849;28;20195;-69
2022/01/22 09:26:50;;;;;;;8.03;4.27;;;3.20;99.90;;;;;;5051129;28;20548;-70
2022/01/22 09:29:16;;;;;;;9.70;4.33;;;3.30;99.90;;;;;;5059819;28;20202;-69
2022/01/22 09:31:42;;;;;;;5.93;3.80;;;3.30;99.90;;;;;;5060657;28;20198;-76
2022/01/22 09:34:09;;;;;;;6.17;3.67;;;3.20;99.90;;;;;;5061673;28;20194;-75
2022/01/22 09:36:35;;;;;;;5.00;3.63;;;3.20;99.90;;;;;;5055705;28;20221;-73
2022/01/22 09:39:02;;;;;;;3.90;3.50;;;3.50;99.90;;;;;;5062668;28;20201;-71
2022/01/22 09:41:28;;;;;;;7.33;3.93;;;3.80;99.90;;;;;;5057075;28;20597;-71
2022/01/22 09:43:55;;;;;;;6.77;3.70;;;4.10;99.90;;;;;;5059003;28;20187;-71
2022/01/22 09:46:22;;;;;;;6.70;3.43;;;4.10;99.90;;;;;;5057772;28;20591;-71
2022/01/22 09:48:51;;;;;;;6.07;3.93;;;4.20;99.90;;;;;;5064716;28;20189;-70
2022/01/22 09:51:17;;;;;;;5.40;3.87;;;4.10;99.90;;;;;;5047926;28;20572;-70
2022/01/22 09:53:44;;;;;;;5.67;4.00;;;4.10;99.90;;;;;;5065294;28;20202;-71
2022/01/22 09:56:10;;;;;;;8.80;3.83;;;4.00;99.90;;;;;;5055045;28;20727;-69
2022/01/22 09:58:36;;;;;;;6.90;4.47;;;3.90;99.90;;;;;;5065118;28;20194;-74
2022/01/22 10:01:31;;;;;;;10.57;3.80;;;4.00;99.90;;;;;;5045702;28;20758;-75
2022/01/22 10:04:03;;;;;;;9.67;4.50;;;4.10;99.90;;;;;;5062347;28;20221;-75
2022/01/22 10:06:31;;;;;;;6.40;4.20;;;3.90;99.90;;;;;;5057304;28;20331;-75
2022/01/22 10:09:12;;;;;;;7.23;5.40;;;3.90;99.90;;;;;;5062463;28;20190;-76
2022/01/22 10:11:38;;;;;;;7.77;4.50;;;3.90;99.90;;;;;;5054867;28;20660;-75
2022/01/22 10:14:04;;;;;;;6.17;4.00;;;3.90;99.90;;;;;;5060678;28;20194;-75
2022/01/22 10:16:38;;;;;;;5.73;3.87;;;4.00;99.90;;;;;;5058180;28;20229;-75
2022/01/22 10:19:06;;;;;;;5.73;4.40;;;4.00;99.90;;;;;;5060971;28;20288;-71
2022/01/22 10:21:32;;;;;;;4.70;4.23;;;4.00;99.90;;;;;;5054078;28;20704;-74
2022/01/22 10:24:21;;;;;;;10.43;4.87;;;4.00;99.90;;;;;;5062293;28;20186;-75
2022/01/22 10:26:47;;;;;;;7.77;4.27;;;4.00;99.90;;;;;;5051836;28;20606;-75
2022/01/22 10:29:19;;;;;;;7.93;4.27;;;4.00;99.90;;;;;;5053332;28;20214;-76
2022/01/22 10:31:46;;;;;;;4.53;3.80;;;4.10;99.90;;;;;;5060218;28;20248;-76
2022/01/22 10:34:12;;;;;;;8.10;4.63;;;4.20;99.90;;;;;;5055106;28;20198;-76
2022/01/22 10:36:39;;;;;;;10.07;4.40;;;4.30;99.90;;;;;;5055127;28;20285;-76
2022/01/22 10:39:24;;;;;;;6.80;4.83;;;4.40;99.90;;;;;;5049397;28;20265;-76
2022/01/22 10:41:50;;;;;;;6.40;3.70;;;4.60;99.90;;;;;;5050926;28;20213;-76
2022/01/22 10:44:21;;;;;;;10.73;4.97;;;4.60;99.90;;;;;;5054422;28;20270;-76
2022/01/22 10:46:51;;;;;;;7.00;2.93;;;4.60;99.90;;;;;;5053096;28;20209;-76
2022/01/22 10:49:21;;;;;;;6.10;5.37;;;4.60;99.90;;;;;;5053202;28;21166;-78
2022/01/22 10:51:49;;;;;;;8.47;3.97;;;4.50;99.90;;;;;;5052491;28;20205;-77
2022/01/22 10:54:19;;;;;;;6.53;3.17;;;4.50;99.90;;;;;;5052329;28;20200;-74
2022/01/22 10:56:46;;;;;;;6.57;3.97;;;4.50;99.90;;;;;;5050927;28;20213;-75
2022/01/22 10:59:13;;;;;;;5.50;3.00;;;4.60;99.90;;;;;;5051922;28;20289;-74
2022/01/22 11:01:52;;;;;;;6.37;3.37;;;4.60;99.90;;;;;;5058545;28;20210;-80
2022/01/22 11:04:21;;;;;;;6.23;2.63;;;4.60;99.90;;;;;;5049097;28;20229;-78
2022/01/22 11:06:54;;;;;;;3.60;2.17;;;4.70;99.90;;;;;;5062387;28;20201;-81
2022/01/22 11:09:21;;;;;;;9.10;3.53;;;4.80;99.90;;;;;;5047818;28;20247;-78
2022/01/22 11:11:49;;;;;;;5.13;4.63;;;4.90;99.90;;;;;;5052833;28;20199;-79
2022/01/22 11:14:16;;;;;;;6.73;4.10;;;5.10;99.90;;;;;;5055277;28;20191;-79
2022/01/22 11:16:43;;;;;;;5.03;3.60;;;5.10;99.90;;;;;;5051839;28;20198;-80
2022/01/22 11:19:11;;;;;;;8.43;7.07;;;5.00;99.90;;;;;;5051713;28;20179;-80
2022/01/22 11:21:40;;;;;;;4.40;3.17;;;4.90;99.90;;;;;;5051128;28;20211;-80
2022/01/22 11:24:09;;;;;;;11.20;9.03;;;4.80;99.90;;;;;;5059324;28;20587;-81
2022/01/22 11:26:37;;;;;;;3.30;2.40;;;4.60;99.90;;;;;;5056289;28;20198;-81
2022/01/22 11:29:04;;;;;;;4.77;1.53;;;4.60;99.90;;;;;;5054348;28;20228;-81
2022/01/22 11:31:31;;;;;;;3.17;2.47;;;4.40;99.90;;;;;;5056060;28;20199;-81
2022/01/22 11:33:59;;;;;;;7.13;2.20;;;4.40;99.90;;;;;;5056362;28;20194;-80
2022/01/22 11:36:43;;;;;;;7.03;4.23;;;4.30;99.90;;;;;;5059873;28;20307;-81
2022/01/22 11:39:19;;;;;;;4.00;2.37;;;4.30;99.90;;;;;;5058706;28;20223;-77
2022/01/22 11:41:57;;;;;;;7.97;3.00;;;4.40;99.90;;;;;;5061137;28;20353;-72
2022/01/22 11:44:34;;;;;;;7.50;3.33;;;4.50;99.90;;;;;;5056874;28;20181;-70
2022/01/22 11:47:09;;;;;;;5.77;2.87;;;4.60;99.90;;;;;;5046325;28;20361;-71
2022/01/22 11:49:35;;;;;;;4.50;2.40;;;4.70;99.90;;;;;;5064346;28;20216;-72
2022/01/22 11:52:12;;;;;;;3.20;2.40;;;4.60;99.90;;;;;;5055357;28;20203;-74
2022/01/22 11:54:54;;;;;;;5.43;3.20;;;4.70;99.90;;;;;;5066824;28;20189;-72
2022/01/22 11:57:21;;;;;;;4.87;3.20;;;4.60;99.90;;;;;;5055138;28;20289;-71
2022/01/22 11:59:47;;;;;;;4.90;3.50;;;4.60;99.90;;;;;;5067365;28;20251;-70
2022/01/22 12:02:14;;;;;;;7.20;2.53;;;4.80;99.90;;;;;;5054028;28;20296;-72
2022/01/22 12:04:39;;;;;;;4.63;2.93;;;4.80;99.90;;;;;;5064937;28;20194;-72
2022/01/22 12:07:05;;;;;;;7.80;3.50;;;4.70;99.90;;;;;;5055488;28;20708;-73
2022/01/22 12:09:51;;;;;;;5.67;3.30;;;4.70;99.90;;;;;;5067345;28;20202;-73
2022/01/22 12:15:49;;;;;;;4.70;2.70;;;4.60;99.90;;;;;;5058275;28;20977;-72
2022/01/22 12:18:17;;;;;;;5.30;2.50;;;4.60;99.90;;;;;;5052737;28;20288;-72
2022/01/22 12:23:15;;;;;;;4.30;3.03;;;4.60;99.90;;;;;;5047214;28;20258;-71
2022/01/22 12:25:40;;;;;;;11.43;4.33;;;4.60;99.90;;;;;;5067122;28;20200;-71
2022/01/22 12:28:07;;;;;;;4.93;2.87;;;4.70;99.90;;;;;;5055693;28;20205;-72
2022/01/22 12:30:44;;;;;;;3.43;2.50;;;4.70;99.90;;;;;;5066410;28;20296;-72
2022/01/22 12:33:14;;;;;;;3.30;2.70;;;4.80;99.90;;;;;;5051632;28;20209;-72
2022/01/22 12:35:48;;;;;;;24.73;19.97;;;4.90;99.90;;;;;;5066666;28;20217;-73
2022/01/22 12:38:35;;;;;;;6.00;4.07;;;5.00;99.90;;;;;;5064025;28;20657;-72
2022/01/22 12:41:35;;;;;;;6.80;3.03;;;5.00;99.90;;;;;;5054036;28;20899;-72
2022/01/22 12:44:36;;;;;;;10.30;6.27;;;5.00;99.90;;;;;;5057753;28;20185;-71
2022/01/22 12:47:05;;;;;;;8.13;2.93;;;5.00;99.90;;;;;;5045825;28;20214;-72
2022/01/22 12:49:33;;;;;;;4.80;3.33;;;5.00;99.90;;;;;;5065257;28;20216;-73
2022/01/22 12:52:03;;;;;;;5.07;3.63;;;4.90;99.90;;;;;;5055101;28;20563;-73
2022/01/22 12:54:30;;;;;;;8.03;5.67;;;4.80;99.90;;;;;;5065702;28;20198;-72
2022/01/22 12:57:24;;;;;;;5.67;3.13;;;4.80;99.90;;;;;;5063590;28;20202;-70
2022/01/22 13:02:37;;;;;;;7.33;3.53;;;5.10;99.90;;;;;;5049041;28;20221;-70
2022/01/22 13:05:03;;;;;;;6.80;3.30;;;5.20;99.90;;;;;;5066151;28;20197;-72
2022/01/22 13:07:36;;;;;;;8.53;3.10;;;5.30;99.90;;;;;;5050727;28;20199;-71
2022/01/22 13:10:06;;;;;;;9.23;4.13;;;5.40;99.90;;;;;;5056831;28;20194;-70
2022/01/22 13:12:32;;;;;;;8.87;3.13;;;5.50;99.90;;;;;;5058997;28;20202;-71
2022/01/22 13:14:58;;;;;;;2.57;2.37;;;5.50;99.90;;;;;;5065553;28;20198;-71
2022/01/22 13:17:33;;;;;;;4.23;2.70;;;5.50;99.90;;;;;;5051329;28;20571;-72
2022/01/22 13:19:59;;;;;;;4.73;3.53;;;5.40;99.90;;;;;;5065438;28;20197;-71
2022/01/22 13:22:36;;;;;;;4.43;2.13;;;5.30;99.90;;;;;;5050660;28;20231;-71
2022/01/22 13:25:11;;;;;;;7.97;4.70;;;5.40;99.90;;;;;;5055748;28;20702;-71
2022/01/22 13:27:38;;;;;;;6.23;3.70;;;5.30;99.90;;;;;;5054885;28;20263;-72
2022/01/22 13:30:07;;;;;;;9.30;4.83;;;5.20;99.90;;;;;;5065666;28;20621;-71
2022/01/22 13:32:48;;;;;;;7.47;3.40;;;5.20;99.90;;;;;;5054349;28;20209;-71
2022/01/22 13:35:29;;;;;;;5.43;3.20;;;5.20;99.90;;;;;;5060989;28;20204;-71
2022/01/22 13:49:08;;;;;;;16.37;9.67;;;5.20;99.90;;;;;;5060291;28;20201;-71
2022/01/22 13:51:34;;;;;;;5.57;3.10;;;5.30;99.90;;;;;;5048941;28;20198;-71
2022/01/22 13:54:01;;;;;;;18.87;14.03;;;5.20;99.90;;;;;;5065204;28;20558;-70
2022/01/22 13:56:48;;;;;;;3.83;2.47;;;5.10;99.90;;;;;;5049267;28;20631;-69
2022/01/22 13:59:29;;;;;;;6.50;2.83;;;5.20;99.90;;;;;;5056522;28;20546;-70
2022/01/22 14:02:15;;;;;;;4.93;2.60;;;5.30;99.90;;;;;;5052632;28;20207;-70
2022/01/22 14:04:47;;;;;;;5.77;2.23;;;5.40;99.90;;;;;;5058877;28;20198;-70
2022/01/22 14:07:32;;;;;;;5.77;2.80;;;5.40;99.90;;;;;;5055362;28;20201;-70
2022/01/22 14:10:20;;;;;;;5.80;2.57;;;5.50;99.90;;;;;;5054233;28;20194;-70
2022/01/22 14:12:48;;;;;;;5.07;2.53;;;5.40;99.90;;;;;;5049531;28;20174;-70
2022/01/22 14:15:26;;;;;;;2.73;1.83;;;5.40;99.90;;;;;;5062465;28;20202;-70
2022/01/22 14:18:19;;;;;;;5.97;2.30;;;5.40;99.90;;;;;;5061399;28;20186;-70
2022/01/22 14:20:47;;;;;;;6.00;4.13;;;5.30;99.90;;;;;;5046897;28;20215;-69
2022/01/22 14:23:17;;;;;;;4.93;2.80;;;5.20;99.90;;;;;;5064445;28;20645;-69
2022/01/22 14:26:05;;;;;;;3.43;2.53;;;5.20;99.90;;;;;;5055040;28;20203;-70
2022/01/22 14:28:43;;;;;;;5.10;2.37;;;5.10;99.90;;;;;;5063957;28;20200;-70
2022/01/22 14:31:18;;;;;;;6.67;3.30;;;5.00;99.90;;;;;;5043762;28;20202;-70
2022/01/22 14:33:44;;;;;;;4.73;3.43;;;5.00;99.90;;;;;;5061472;28;20225;-70
2022/01/22 14:36:18;;;;;;;12.73;4.47;;;5.10;99.90;;;;;;5051026;28;20242;-70
2022/01/22 14:38:51;;;;;;;5.17;3.67;;;5.20;99.90;;;;;;5057160;28;20194;-69
2022/01/22 14:44:30;;;;;;;3.57;2.83;;;5.20;99.90;;;;;;5063142;28;20315;-70
2022/01/22 14:47:08;;;;;;;6.83;2.53;;;5.20;99.90;;;;;;5052866;28;20210;-70